Time;durP1;ratioP1;P1;durP2;ratioP2;P2;SDS_P1;SDS_P2;PMS_P1;PMS_P2;Temp;Humidity;BMP_temperature;BMP_pressure;BME280_temperature;BME280_humidity;BME280_pressure;Samples;Min_cycle;Max_cycle;Signal;HPM_P1;HPM_P2
2023/05/04 00:02:42;;;;;;;2.25;1.10;;;;;;;;;;10309621;28;20031;-57
2023/05/04 00:07:42;;;;;;;3.67;1.30;;;;;;;;;;10318137;28;20030;-56
2023/05/04 00:12:45;;;;;;;5.57;1.58;;;;;;;;;;10317583;28;20073;-56
2023/05/04 00:17:45;;;;;;;1.40;1.20;;;;;;;;;;10303471;28;20031;-56
2023/05/04 00:22:46;;;;;;;2.45;1.30;;;;;;;;;;10310848;28;20038;-56
2023/05/04 00:27:46;;;;;;;3.88;1.58;;;;;;;;;;10314862;28;20034;-55
2023/05/04 00:32:47;;;;;;;1.85;1.20;;;;;;;;;;10311304;28;20023;-55
2023/05/04 00:37:47;;;;;;;1.17;1.08;;;;;;;;;;10294486;28;20031;-55
2023/05/04 00:42:48;;;;;;;1.55;1.20;;;;;;;;;;10308907;28;20102;-55
2023/05/04 00:47:49;;;;;;;3.08;1.25;;;;;;;;;;10297621;28;20206;-54
2023/05/04 00:52:50;;;;;;;1.90;0.95;;;;;;;;;;10304459;28;20023;-52
2023/05/04 00:57:51;;;;;;;1.63;1.20;;;;;;;;;;10291170;28;20514;-51
2023/05/04 01:02:52;;;;;;;1.67;1.10;;;;;;;;;;10311618;28;20234;-54
2023/05/04 01:08:34;;;;;;;1.23;1.13;;;;;;;;;;10290339;28;20045;-52
2023/05/04 01:13:35;;;;;;;1.83;1.00;;;;;;;;;;10282452;28;20081;-51
2023/05/04 01:18:36;;;;;;;3.38;1.30;;;;;;;;;;10302719;28;20041;-53
2023/05/04 01:23:37;;;;;;;1.58;1.25;;;;;;;;;;10319579;28;20033;-55
2023/05/04 01:29:06;;;;;;;1.63;1.27;;;;;;;;;;10285056;28;20470;-54
2023/05/04 01:34:08;;;;;;;1.15;1.00;;;;;;;;;;10266501;28;20034;-55
2023/05/04 01:39:08;;;;;;;6.93;1.45;;;;;;;;;;10301061;28;20038;-55
2023/05/04 01:44:09;;;;;;;0.85;0.85;;;;;;;;;;10325205;28;20499;-54
2023/05/04 01:49:09;;;;;;;1.40;1.05;;;;;;;;;;10307886;28;20035;-54
2023/05/04 01:54:10;;;;;;;1.65;1.08;;;;;;;;;;10311801;28;20069;-56
2023/05/04 01:59:11;;;;;;;8.35;1.13;;;;;;;;;;10305402;28;20038;-54
2023/05/04 02:04:11;;;;;;;1.20;1.10;;;;;;;;;;10320616;28;20340;-55
2023/05/04 02:09:12;;;;;;;1.95;1.30;;;;;;;;;;10324593;28;20354;-53
2023/05/04 02:14:12;;;;;;;1.40;1.20;;;;;;;;;;10315242;28;20038;-52
2023/05/04 02:19:13;;;;;;;4.97;1.30;;;;;;;;;;10289839;28;20038;-54
2023/05/04 02:24:13;;;;;;;3.08;1.20;;;;;;;;;;10307778;28;20130;-53
2023/05/04 02:29:14;;;;;;;1.90;1.05;;;;;;;;;;10316930;28;20031;-52
2023/05/04 02:34:15;;;;;;;1.25;1.15;;;;;;;;;;10307048;28;20027;-56
2023/05/04 02:39:16;;;;;;;1.30;1.20;;;;;;;;;;10294900;28;20042;-57
2023/05/04 02:44:16;;;;;;;1.48;1.38;;;;;;;;;;10290540;28;20283;-55
2023/05/04 02:49:17;;;;;;;2.40;1.20;;;;;;;;;;10297103;28;20030;-54
2023/05/04 02:54:18;;;;;;;3.50;1.20;;;;;;;;;;10302936;28;20030;-53
2023/05/04 02:59:18;;;;;;;2.75;1.10;;;;;;;;;;10324609;28;20088;-54
2023/05/04 03:04:19;;;;;;;7.68;1.30;;;;;;;;;;10314161;28;20088;-51
2023/05/04 03:09:19;;;;;;;1.50;1.00;;;;;;;;;;10327353;28;20031;-54
2023/05/04 03:14:20;;;;;;;2.65;1.38;;;;;;;;;;10330187;28;20081;-54
2023/05/04 03:19:21;;;;;;;1.70;1.27;;;;;;;;;;10318825;28;20510;-53
2023/05/04 03:24:21;;;;;;;1.45;1.15;;;;;;;;;;10318805;28;20038;-54
2023/05/04 03:29:22;;;;;;;2.03;1.38;;;;;;;;;;10316518;28;20031;-54
2023/05/04 03:34:23;;;;;;;0.95;0.95;;;;;;;;;;10328395;28;20026;-56
2023/05/04 03:39:23;;;;;;;2.40;1.17;;;;;;;;;;10328634;28;20041;-55
2023/05/04 03:44:24;;;;;;;1.40;1.13;;;;;;;;;;10315780;28;20034;-55
2023/05/04 03:49:25;;;;;;;1.08;1.02;;;;;;;;;;10328986;28;20027;-55
2023/05/04 03:54:25;;;;;;;1.20;1.10;;;;;;;;;;10316114;28;20030;-56
2023/05/04 03:59:26;;;;;;;1.63;1.00;;;;;;;;;;10315125;28;20173;-56
2023/05/04 04:04:26;;;;;;;2.13;1.23;;;;;;;;;;10309679;28;20027;-57
2023/05/04 04:09:27;;;;;;;1.20;1.10;;;;;;;;;;10305287;28;20027;-56
2023/05/04 04:14:28;;;;;;;0.98;0.90;;;;;;;;;;10295929;28;20026;-56
2023/05/04 04:19:28;;;;;;;1.35;1.17;;;;;;;;;;10313660;28;20030;-55
2023/05/04 04:24:30;;;;;;;3.33;1.13;;;;;;;;;;10325256;28;20092;-53
2023/05/04 04:29:34;;;;;;;2.42;1.10;;;;;;;;;;10322225;28;20026;-53
2023/05/04 04:34:35;;;;;;;2.00;1.00;;;;;;;;;;10290154;28;20023;-56
2023/05/04 04:39:35;;;;;;;4.05;1.00;;;;;;;;;;10326784;28;20077;-55
2023/05/04 04:44:36;;;;;;;1.27;1.10;;;;;;;;;;10325739;28;20238;-55
2023/05/04 04:49:37;;;;;;;1.27;1.17;;;;;;;;;;10326724;28;20022;-55
2023/05/04 04:54:38;;;;;;;0.98;0.90;;;;;;;;;;10284718;28;20062;-55
2023/05/04 04:59:39;;;;;;;1.10;1.02;;;;;;;;;;10317512;28;20066;-55
2023/05/04 05:04:40;;;;;;;5.55;1.20;;;;;;;;;;10310567;28;20445;-56
2023/05/04 05:09:41;;;;;;;1.20;1.10;;;;;;;;;;10305778;28;20019;-55
2023/05/04 05:14:43;;;;;;;1.15;1.00;;;;;;;;;;10304322;28;20061;-53
2023/05/04 05:19:43;;;;;;;11.10;1.27;;;;;;;;;;10293333;28;20035;-51
2023/05/04 05:24:44;;;;;;;0.90;0.90;;;;;;;;;;10303111;28;20019;-54
2023/05/04 05:29:45;;;;;;;1.25;1.08;;;;;;;;;;10300761;28;20029;-55
2023/05/04 05:34:47;;;;;;;1.30;1.10;;;;;;;;;;10304619;28;20037;-58
2023/05/04 05:39:47;;;;;;;6.68;1.10;;;;;;;;;;10300101;28;20126;-54
2023/05/04 05:44:48;;;;;;;3.55;1.33;;;;;;;;;;10301051;28;20073;-55
2023/05/04 05:49:48;;;;;;;2.28;1.23;;;;;;;;;;10305463;28;20046;-56
2023/05/04 05:54:49;;;;;;;4.85;1.50;;;;;;;;;;10305881;28;20035;-55
2023/05/04 05:59:50;;;;;;;4.55;1.63;;;;;;;;;;10308186;28;20041;-59
2023/05/04 06:04:50;;;;;;;16.25;3.15;;;;;;;;;;10289719;28;20033;-57
2023/05/04 06:09:51;;;;;;;9.43;1.85;;;;;;;;;;10298249;28;20041;-57
2023/05/04 06:14:52;;;;;;;8.55;1.83;;;;;;;;;;10286799;28;20035;-57
2023/05/04 06:19:52;;;;;;;15.05;2.10;;;;;;;;;;10296666;28;20042;-57
2023/05/04 06:24:53;;;;;;;8.75;2.20;;;;;;;;;;10311006;28;20034;-58
2023/05/04 06:29:53;;;;;;;13.60;2.17;;;;;;;;;;10316526;28;20034;-58
2023/05/04 06:34:54;;;;;;;18.95;2.40;;;;;;;;;;10292046;28;20034;-57
2023/05/04 06:39:56;;;;;;;12.10;2.40;;;;;;;;;;10321326;28;20189;-57
2023/05/04 06:44:57;;;;;;;7.18;2.20;;;;;;;;;;10316777;28;20125;-58
2023/05/04 06:49:57;;;;;;;8.85;2.30;;;;;;;;;;10318403;28;20486;-60
2023/05/04 06:55:00;;;;;;;12.98;2.13;;;;;;;;;;10318844;28;20038;-62
2023/05/04 07:00:03;;;;;;;10.50;2.30;;;;;;;;;;10317126;28;20045;-60
2023/05/04 07:05:04;;;;;;;10.23;2.10;;;;;;;;;;10322694;28;20080;-60
2023/05/04 07:10:05;;;;;;;7.50;2.10;;;;;;;;;;10326066;28;20037;-60
2023/05/04 07:15:07;;;;;;;15.10;2.42;;;;;;;;;;10321473;28;20038;-62
2023/05/04 07:20:09;;;;;;;7.78;2.25;;;;;;;;;;10311666;28;20058;-58
2023/05/04 07:25:09;;;;;;;4.15;2.08;;;;;;;;;;10309188;28;20043;-58
2023/05/04 07:30:10;;;;;;;5.20;2.10;;;;;;;;;;10318794;28;20030;-60
2023/05/04 07:35:11;;;;;;;5.55;1.77;;;;;;;;;;10314949;28;20497;-59
2023/05/04 07:40:13;;;;;;;7.32;2.15;;;;;;;;;;10320436;28;20051;-59
2023/05/04 07:45:15;;;;;;;6.25;2.20;;;;;;;;;;10319493;28;20039;-59
2023/05/04 07:50:16;;;;;;;4.93;1.83;;;;;;;;;;10319641;28;20097;-59
2023/05/04 07:55:17;;;;;;;5.80;2.55;;;;;;;;;;10316648;28;20026;-58
2023/05/04 08:00:19;;;;;;;3.30;1.73;;;;;;;;;;10313519;28;20066;-58
2023/05/04 08:05:20;;;;;;;2.83;1.80;;;;;;;;;;10302218;28;20031;-57
2023/05/04 08:10:20;;;;;;;6.93;2.05;;;;;;;;;;10305785;28;20438;-58
2023/05/04 08:15:21;;;;;;;4.95;1.48;;;;;;;;;;10312263;28;20053;-59
2023/05/04 08:20:22;;;;;;;3.72;1.80;;;;;;;;;;10304617;28;20046;-57
2023/05/04 08:25:23;;;;;;;4.50;1.80;;;;;;;;;;10312119;28;20030;-58
2023/05/04 08:30:24;;;;;;;8.65;1.95;;;;;;;;;;10322968;28;20101;-57
2023/05/04 08:35:26;;;;;;;7.00;2.03;;;;;;;;;;10310831;28;20030;-58
2023/05/04 08:40:27;;;;;;;4.22;1.65;;;;;;;;;;10303410;28;20117;-58
2023/05/04 08:45:28;;;;;;;6.35;2.20;;;;;;;;;;10304879;28;20483;-58
2023/05/04 08:50:29;;;;;;;4.53;1.60;;;;;;;;;;10314697;28;20037;-60
2023/05/04 08:55:32;;;;;;;2.85;1.60;;;;;;;;;;10311232;28;20117;-58
2023/05/04 09:00:35;;;;;;;4.30;1.90;;;;;;;;;;10314632;28;20026;-60
2023/05/04 09:05:37;;;;;;;2.33;1.58;;;;;;;;;;10324058;28;20275;-59
2023/05/04 09:10:37;;;;;;;6.45;1.60;;;;;;;;;;10305602;28;20478;-58
2023/05/04 09:15:38;;;;;;;4.75;1.60;;;;;;;;;;10310506;28;20037;-59
2023/05/04 09:20:44;;;;;;;2.75;1.75;;;;;;;;;;10308869;28;20113;-59
2023/05/04 09:25:55;;;;;;;2.50;1.65;;;;;;;;;;10310108;28;20047;-61
2023/05/04 09:31:00;;;;;;;2.55;1.52;;;;;;;;;;10305876;28;20121;-61
2023/05/04 09:36:16;;;;;;;2.05;1.60;;;;;;;;;;10309221;28;20081;-58
2023/05/04 09:41:17;;;;;;;3.00;1.67;;;;;;;;;;10298374;28;20045;-58
2023/05/04 09:46:18;;;;;;;4.00;1.80;;;;;;;;;;10300717;28;20057;-57
2023/05/04 09:51:21;;;;;;;2.50;1.67;;;;;;;;;;10319855;28;20038;-59
2023/05/04 09:56:40;;;;;;;2.38;1.60;;;;;;;;;;10316525;28;20066;-58
2023/05/04 10:01:41;;;;;;;4.30;1.90;;;;;;;;;;10309758;28;20034;-59
2023/05/04 10:06:43;;;;;;;2.65;1.77;;;;;;;;;;10297810;28;20121;-59
2023/05/04 10:11:44;;;;;;;6.53;1.73;;;;;;;;;;10293566;28;20112;-62
2023/05/04 10:16:50;;;;;;;3.63;1.95;;;;;;;;;;10302941;28;20040;-58
2023/05/04 10:22:37;;;;;;;3.75;1.95;;;;;;;;;;10331528;28;20026;-59
2023/05/04 10:28:10;;;;;;;3.38;1.85;;;;;;;;;;10313487;28;20030;-59
2023/05/04 10:33:14;;;;;;;2.63;1.70;;;;;;;;;;10307768;28;20411;-61
2023/05/04 10:38:15;;;;;;;3.65;1.92;;;;;;;;;;10310008;28;20521;-56
2023/05/04 10:43:23;;;;;;;2.67;1.60;;;;;;;;;;10308472;28;20046;-59
2023/05/04 10:48:36;;;;;;;3.53;1.75;;;;;;;;;;10330304;28;20030;-57
2023/05/04 10:53:40;;;;;;;3.00;2.00;;;;;;;;;;10316894;28;20034;-60
2023/05/04 10:58:40;;;;;;;3.28;2.15;;;;;;;;;;10293829;28;20146;-58
2023/05/04 11:03:41;;;;;;;1.70;1.58;;;;;;;;;;10314941;28;20103;-57
2023/05/04 11:08:44;;;;;;;2.33;1.80;;;;;;;;;;10305836;28;20297;-57
2023/05/04 11:13:46;;;;;;;2.58;1.65;;;;;;;;;;10307623;28;20034;-58
2023/05/04 11:18:46;;;;;;;2.22;1.88;;;;;;;;;;10321778;28;20058;-58
2023/05/04 11:23:56;;;;;;;1.73;1.58;;;;;;;;;;10324738;28;20045;-57
2023/05/04 11:28:57;;;;;;;2.08;1.83;;;;;;;;;;10310861;28;20037;-57
2023/05/04 11:33:58;;;;;;;2.20;1.63;;;;;;;;;;10316100;28;20069;-57
2023/05/04 11:38:59;;;;;;;2.53;1.60;;;;;;;;;;10297617;28;20034;-59
2023/05/04 11:44:02;;;;;;;2.55;1.52;;;;;;;;;;10285144;28;20091;-59
2023/05/04 11:49:04;;;;;;;1.73;1.58;;;;;;;;;;10273063;28;20057;-57
2023/05/04 11:54:06;;;;;;;2.58;1.80;;;;;;;;;;10315363;28;20174;-61
2023/05/04 11:59:09;;;;;;;2.25;1.85;;;;;;;;;;10312727;28;20093;-58
2023/05/04 12:04:10;;;;;;;2.53;1.80;;;;;;;;;;10308781;28;20074;-58
2023/05/04 12:09:10;;;;;;;2.83;1.58;;;;;;;;;;10311576;28;20033;-57
2023/05/04 12:14:15;;;;;;;3.60;1.80;;;;;;;;;;10315890;28;20038;-58
2023/05/04 12:19:16;;;;;;;2.50;1.88;;;;;;;;;;10317054;28;20426;-58
2023/05/04 12:24:18;;;;;;;3.50;2.05;;;;;;;;;;10310499;28;20022;-58
2023/05/04 12:29:19;;;;;;;3.83;2.40;;;;;;;;;;10310181;28;20031;-59
2023/05/04 12:34:19;;;;;;;2.75;2.55;;;;;;;;;;10312881;28;20049;-58
2023/05/04 12:39:20;;;;;;;4.15;2.80;;;;;;;;;;10296163;28;20031;-61
2023/05/04 12:44:21;;;;;;;2.83;2.30;;;;;;;;;;10296644;28;20255;-58
2023/05/04 12:49:22;;;;;;;4.75;2.30;;;;;;;;;;10314551;28;20437;-61
2023/05/04 12:54:23;;;;;;;3.30;2.30;;;;;;;;;;10315359;28;20030;-61
2023/05/04 12:59:25;;;;;;;3.60;2.13;;;;;;;;;;10310383;28;20034;-58
2023/05/04 13:04:25;;;;;;;3.20;2.33;;;;;;;;;;10312878;28;20530;-62
2023/05/04 13:09:26;;;;;;;5.55;2.88;;;;;;;;;;10313343;28;20029;-59
2023/05/04 13:14:27;;;;;;;3.78;2.40;;;;;;;;;;10318919;28;20025;-55
2023/05/04 13:19:28;;;;;;;12.38;2.80;;;;;;;;;;10321066;28;20038;-57
2023/05/04 13:24:29;;;;;;;15.10;2.95;;;;;;;;;;10303885;28;20038;-58
2023/05/04 13:29:29;;;;;;;11.50;2.70;;;;;;;;;;10303597;28;20037;-55
2023/05/04 13:34:30;;;;;;;9.07;3.25;;;;;;;;;;10312202;28;20038;-58
2023/05/04 13:39:39;;;;;;;13.15;3.88;;;;;;;;;;10309819;28;20082;-58
2023/05/04 13:44:47;;;;;;;64.47;5.45;;;;;;;;;;10307393;28;20102;-60
2023/05/04 13:49:49;;;;;;;29.10;4.13;;;;;;;;;;10300151;28;20054;-56
2023/05/04 13:54:51;;;;;;;13.88;3.53;;;;;;;;;;10312842;28;20239;-56
2023/05/04 13:59:51;;;;;;;22.40;3.85;;;;;;;;;;10313478;28;20038;-58
2023/05/04 14:04:52;;;;;;;7.60;2.95;;;;;;;;;;10291940;28;20057;-58
2023/05/04 14:09:54;;;;;;;4.82;3.05;;;;;;;;;;10282053;28;20034;-59
2023/05/04 14:14:56;;;;;;;8.52;3.10;;;;;;;;;;10308429;28;20034;-60
2023/05/04 14:19:57;;;;;;;5.90;3.30;;;;;;;;;;10319271;28;20042;-58
2023/05/04 14:24:58;;;;;;;6.00;3.70;;;;;;;;;;10312958;28;20026;-57
2023/05/04 14:29:58;;;;;;;5.65;3.78;;;;;;;;;;10315375;28;20026;-59
2023/05/04 14:35:07;;;;;;;14.25;4.05;;;;;;;;;;10309243;28;20461;-59
2023/05/04 14:40:09;;;;;;;9.45;3.97;;;;;;;;;;10308546;28;20078;-56
2023/05/04 14:45:10;;;;;;;7.32;4.07;;;;;;;;;;10307710;28;20142;-59
2023/05/04 14:50:11;;;;;;;7.47;3.85;;;;;;;;;;10312375;28;20041;-57
2023/05/04 14:55:13;;;;;;;12.63;4.15;;;;;;;;;;10313081;28;20068;-58
2023/05/04 15:00:14;;;;;;;5.65;4.32;;;;;;;;;;10301731;28;20066;-59
2023/05/04 15:05:15;;;;;;;6.72;4.07;;;;;;;;;;10321161;28;20026;-58
2023/05/04 15:10:16;;;;;;;6.18;3.88;;;;;;;;;;10326255;28;20033;-58
2023/05/04 15:15:19;;;;;;;7.75;3.67;;;;;;;;;;10312534;28;20033;-57
2023/05/04 15:20:20;;;;;;;5.07;3.20;;;;;;;;;;10326576;28;20076;-56
2023/05/04 15:25:22;;;;;;;7.80;3.13;;;;;;;;;;10321661;28;20026;-57
2023/05/04 15:30:23;;;;;;;4.13;2.92;;;;;;;;;;10316610;28;20394;-60
2023/05/04 15:35:23;;;;;;;7.45;3.70;;;;;;;;;;10313123;28;20027;-61
2023/05/04 15:40:24;;;;;;;4.00;3.00;;;;;;;;;;10306295;28;20035;-60
2023/05/04 15:45:25;;;;;;;7.07;3.15;;;;;;;;;;10313312;28;20049;-60
2023/05/04 15:50:25;;;;;;;7.20;2.75;;;;;;;;;;10306117;28;20378;-59
2023/05/04 15:55:26;;;;;;;10.10;2.90;;;;;;;;;;10310079;28;20042;-57
2023/05/04 16:00:27;;;;;;;8.25;2.95;;;;;;;;;;10308945;28;20045;-58
2023/05/04 16:05:27;;;;;;;6.97;2.80;;;;;;;;;;10294324;28;20038;-59
2023/05/04 16:10:28;;;;;;;3.75;2.60;;;;;;;;;;10324212;28;20470;-62
2023/05/04 16:15:29;;;;;;;5.97;2.45;;;;;;;;;;10305066;28;20031;-57
2023/05/04 16:20:30;;;;;;;3.65;2.63;;;;;;;;;;10295158;28;20038;-56
2023/05/04 16:25:31;;;;;;;4.60;2.65;;;;;;;;;;10312550;28;20022;-57
2023/05/04 16:30:33;;;;;;;3.17;2.60;;;;;;;;;;10300793;28;20039;-57
2023/05/04 16:35:34;;;;;;;5.30;2.60;;;;;;;;;;10297667;28;20093;-57
2023/05/04 16:40:35;;;;;;;5.72;2.25;;;;;;;;;;10303502;28;20031;-60
2023/05/04 16:45:36;;;;;;;7.82;2.40;;;;;;;;;;10309242;28;20116;-56
2023/05/04 16:50:40;;;;;;;4.47;2.30;;;;;;;;;;10301448;28;20485;-61
2023/05/04 16:55:47;;;;;;;2.90;2.05;;;;;;;;;;10299784;28;20027;-61
2023/05/04 17:00:47;;;;;;;3.03;2.53;;;;;;;;;;10297425;28;20088;-62
2023/05/04 17:05:48;;;;;;;5.40;2.75;;;;;;;;;;10301534;28;20112;-58
2023/05/04 17:10:49;;;;;;;5.07;2.38;;;;;;;;;;10295200;28;20050;-55
2023/05/04 17:15:49;;;;;;;4.15;2.45;;;;;;;;;;10299486;28;20348;-55
2023/05/04 17:20:50;;;;;;;2.35;2.00;;;;;;;;;;10307068;28;20033;-56
2023/05/04 17:25:51;;;;;;;2.72;2.20;;;;;;;;;;10315971;28;20477;-58
2023/05/04 17:30:51;;;;;;;3.33;2.05;;;;;;;;;;10314901;28;20057;-54
2023/05/04 17:35:52;;;;;;;3.35;2.33;;;;;;;;;;10301452;28;20057;-58
2023/05/04 17:40:53;;;;;;;4.28;2.35;;;;;;;;;;10313463;28;20030;-54
2023/05/04 17:45:53;;;;;;;2.97;2.35;;;;;;;;;;10305099;28;20386;-55
2023/05/04 17:50:55;;;;;;;2.75;2.30;;;;;;;;;;10302749;28;20427;-54
2023/05/04 17:55:55;;;;;;;2.72;2.10;;;;;;;;;;10301100;28;20070;-54
2023/05/04 18:00:56;;;;;;;3.95;2.45;;;;;;;;;;10296273;28;20122;-55
2023/05/04 18:05:56;;;;;;;6.60;2.30;;;;;;;;;;10317748;28;20381;-54
2023/05/04 18:10:57;;;;;;;2.33;2.00;;;;;;;;;;10304433;28;20041;-55
2023/05/04 18:15:57;;;;;;;3.10;2.30;;;;;;;;;;10296448;28;20023;-55
2023/05/04 18:20:59;;;;;;;2.88;2.20;;;;;;;;;;10302462;28;20034;-55
2023/05/04 18:26:00;;;;;;;4.65;2.78;;;;;;;;;;10305075;28;20069;-54
2023/05/04 18:31:01;;;;;;;10.20;2.75;;;;;;;;;;10305518;28;20536;-56
2023/05/04 18:36:02;;;;;;;3.65;2.35;;;;;;;;;;10313722;28;20441;-55
2023/05/04 18:41:04;;;;;;;3.25;2.40;;;;;;;;;;10312921;28;20586;-57
2023/05/04 18:46:06;;;;;;;5.03;2.45;;;;;;;;;;10317197;28;20031;-56
2023/05/04 18:51:06;;;;;;;4.55;2.60;;;;;;;;;;10319075;28;20082;-55
2023/05/04 18:56:09;;;;;;;2.90;2.17;;;;;;;;;;10322171;28;20068;-55
2023/05/04 19:01:09;;;;;;;3.72;2.30;;;;;;;;;;10311532;28;20041;-60
2023/05/04 19:06:10;;;;;;;5.18;2.97;;;;;;;;;;10310276;28;20054;-60
2023/05/04 19:11:11;;;;;;;4.90;2.45;;;;;;;;;;10304923;28;20391;-55
2023/05/04 19:16:11;;;;;;;5.22;2.45;;;;;;;;;;10318246;28;20034;-56
2023/05/04 19:21:12;;;;;;;5.72;2.40;;;;;;;;;;10303357;28;20023;-56
2023/05/04 19:26:13;;;;;;;12.23;3.03;;;;;;;;;;10309667;28;20034;-57
2023/05/04 19:31:14;;;;;;;7.97;3.00;;;;;;;;;;10306456;28;20034;-57
2023/05/04 19:36:15;;;;;;;5.13;2.70;;;;;;;;;;10307007;28;20027;-59
2023/05/04 19:41:16;;;;;;;8.10;3.08;;;;;;;;;;10305159;28;20060;-60
2023/05/04 19:46:17;;;;;;;9.40;2.88;;;;;;;;;;10390598;23;20049;-59
2023/05/04 19:51:18;;;;;;;10.23;2.90;;;;;;;;;;10362673;28;20037;-59
2023/05/04 19:56:18;;;;;;;4.57;2.80;;;;;;;;;;10372387;28;20436;-58
2023/05/04 20:01:19;;;;;;;4.13;2.70;;;;;;;;;;10378388;28;20041;-60
2023/05/04 20:06:20;;;;;;;7.68;2.65;;;;;;;;;;10373600;28;20037;-60
2023/05/04 20:11:20;;;;;;;3.75;2.42;;;;;;;;;;10369353;28;20021;-59
2023/05/04 20:16:21;;;;;;;7.57;2.40;;;;;;;;;;10364491;28;20683;-59
2023/05/04 20:21:22;;;;;;;10.35;2.47;;;;;;;;;;10373967;28;20080;-60
2023/05/04 20:26:22;;;;;;;4.40;2.50;;;;;;;;;;10377382;28;20045;-60
2023/05/04 20:31:23;;;;;;;5.70;2.83;;;;;;;;;;10366920;28;20018;-60
2023/05/04 20:36:23;;;;;;;4.43;2.92;;;;;;;;;;10368531;28;20509;-60
2023/05/04 20:41:24;;;;;;;7.13;2.88;;;;;;;;;;10366613;28;20033;-60
2023/05/04 20:46:25;;;;;;;8.95;2.63;;;;;;;;;;10354851;28;20096;-61
2023/05/04 20:51:26;;;;;;;9.88;2.40;;;;;;;;;;10361238;28;20516;-60
2023/05/04 20:56:27;;;;;;;5.32;2.45;;;;;;;;;;10366592;28;20487;-60
2023/05/04 21:01:28;;;;;;;6.85;2.50;;;;;;;;;;10355242;28;20038;-59
2023/05/04 21:06:30;;;;;;;9.80;2.58;;;;;;;;;;10360628;28;20033;-60
2023/05/04 21:11:30;;;;;;;11.25;3.20;;;;;;;;;;10352443;28;20388;-59
2023/05/04 21:16:31;;;;;;;4.78;3.10;;;;;;;;;;10362951;28;20080;-59
2023/05/04 21:21:33;;;;;;;11.48;3.65;;;;;;;;;;10365237;28;20028;-60
2023/05/04 21:26:34;;;;;;;10.88;3.75;;;;;;;;;;10363271;28;20064;-59
2023/05/04 21:31:34;;;;;;;14.63;3.28;;;;;;;;;;10372584;28;20019;-59
2023/05/04 21:36:37;;;;;;;9.88;2.72;;;;;;;;;;10363567;28;20574;-59
2023/05/04 21:41:38;;;;;;;4.63;2.97;;;;;;;;;;10361883;28;20026;-59
2023/05/04 21:46:39;;;;;;;7.40;2.97;;;;;;;;;;10356527;28;20149;-59
2023/05/04 21:51:41;;;;;;;8.30;2.85;;;;;;;;;;10364510;28;20155;-58
2023/05/04 21:56:42;;;;;;;11.15;2.72;;;;;;;;;;10354401;28;20433;-60
2023/05/04 22:01:42;;;;;;;6.15;2.47;;;;;;;;;;10337436;28;20109;-59
2023/05/04 22:06:43;;;;;;;5.57;2.67;;;;;;;;;;10334662;28;20567;-59
2023/05/04 22:11:45;;;;;;;7.32;2.92;;;;;;;;;;10335680;28;20022;-60
2023/05/04 22:16:46;;;;;;;6.18;2.67;;;;;;;;;;10342133;28;20441;-60
2023/05/04 22:21:47;;;;;;;7.00;2.38;;;;;;;;;;10348019;28;20034;-60
2023/05/04 22:26:47;;;;;;;8.73;2.70;;;;;;;;;;10343629;28;20030;-58
2023/05/04 22:31:48;;;;;;;5.15;2.60;;;;;;;;;;10343356;28;20022;-58
2023/05/04 22:36:49;;;;;;;4.28;2.53;;;;;;;;;;10343884;28;20025;-60
2023/05/04 22:41:49;;;;;;;3.83;2.50;;;;;;;;;;10350011;28;20022;-60
2023/05/04 22:46:50;;;;;;;5.85;2.70;;;;;;;;;;10339692;28;20508;-61
2023/05/04 22:51:50;;;;;;;6.13;3.20;;;;;;;;;;10349288;28;20018;-57
2023/05/04 22:56:51;;;;;;;6.35;2.40;;;;;;;;;;10346778;28;20026;-58
2023/05/04 23:01:52;;;;;;;5.88;2.55;;;;;;;;;;10344635;28;20037;-57
2023/05/04 23:06:53;;;;;;;6.13;2.33;;;;;;;;;;10339758;28;20397;-58
2023/05/04 23:11:53;;;;;;;8.23;2.45;;;;;;;;;;10338302;28;20030;-60
2023/05/04 23:16:54;;;;;;;6.45;2.60;;;;;;;;;;10354468;28;20477;-58
2023/05/04 23:21:58;;;;;;;5.38;2.70;;;;;;;;;;10379660;28;20033;-59
2023/05/04 23:26:59;;;;;;;3.40;2.25;;;;;;;;;;10363501;28;20026;-59
2023/05/04 23:32:00;;;;;;;4.55;2.17;;;;;;;;;;10359213;28;20029;-59
2023/05/04 23:37:00;;;;;;;4.40;2.45;;;;;;;;;;10372194;28;20079;-59
2023/05/04 23:42:01;;;;;;;5.53;2.50;;;;;;;;;;10371566;28;20045;-59
2023/05/04 23:47:01;;;;;;;4.78;2.10;;;;;;;;;;10375865;28;20049;-59
2023/05/04 23:52:02;;;;;;;4.82;2.20;;;;;;;;;;10373386;28;20141;-60
2023/05/04 23:57:03;;;;;;;4.22;2.20;;;;;;;;;;10367343;28;20423;-59
